sensor_id;sensor_type;location;lat;lon;timestamp;P1;durP1;ratioP1;P2;durP2;ratioP2
32297;SDS011;18782;48.984;8.548;2022-10-04T00:01:46;9.40;;;4.25;;
32297;SDS011;18782;48.984;8.548;2022-10-04T00:04:18;8.32;;;4.70;;
32297;SDS011;18782;48.984;8.548;2022-10-04T00:06:52;5.57;;;4.05;;
32297;SDS011;18782;48.984;8.548;2022-10-04T00:11:54;8.65;;;3.80;;
32297;SDS011;18782;48.984;8.548;2022-10-04T00:14:24;7.75;;;4.10;;
32297;SDS011;18782;48.984;8.548;2022-10-04T00:16:58;5.95;;;4.57;;
32297;SDS011;18782;48.984;8.548;2022-10-04T00:19:38;6.70;;;3.95;;
32297;SDS011;18782;48.984;8.548;2022-10-04T00:22:19;8.48;;;4.38;;
32297;SDS011;18782;48.984;8.548;2022-10-04T00:25:13;8.98;;;4.18;;
32297;SDS011;18782;48.984;8.548;2022-10-04T00:31:08;8.52;;;4.78;;
32297;SDS011;18782;48.984;8.548;2022-10-04T00:33:49;8.65;;;4.55;;
32297;SDS011;18782;48.984;8.548;2022-10-04T00:36:33;7.78;;;3.90;;
32297;SDS011;18782;48.984;8.548;2022-10-04T00:39:12;7.10;;;3.47;;
32297;SDS011;18782;48.984;8.548;2022-10-04T00:41:52;11.27;;;3.78;;
32297;SDS011;18782;48.984;8.548;2022-10-04T00:44:27;8.55;;;4.28;;
32297;SDS011;18782;48.984;8.548;2022-10-04T00:46:59;8.02;;;4.13;;
32297;SDS011;18782;48.984;8.548;2022-10-04T00:49:32;9.93;;;4.75;;
32297;SDS011;18782;48.984;8.548;2022-10-04T00:52:08;9.88;;;4.47;;
32297;SDS011;18782;48.984;8.548;2022-10-04T00:54:41;6.93;;;3.97;;
32297;SDS011;18782;48.984;8.548;2022-10-04T00:57:15;6.22;;;3.75;;
32297;SDS011;18782;48.984;8.548;2022-10-04T00:59:47;5.43;;;3.67;;
32297;SDS011;18782;48.984;8.548;2022-10-04T01:02:18;6.00;;;3.72;;
32297;SDS011;18782;48.984;8.548;2022-10-04T01:04:50;7.05;;;3.92;;
32297;SDS011;18782;48.984;8.548;2022-10-04T01:07:24;8.63;;;4.22;;
32297;SDS011;18782;48.984;8.548;2022-10-04T01:09:55;6.88;;;3.85;;
32297;SDS011;18782;48.984;8.548;2022-10-04T01:12:31;6.68;;;3.92;;
32297;SDS011;18782;48.984;8.548;2022-10-04T01:15:07;7.97;;;3.85;;
32297;SDS011;18782;48.984;8.548;2022-10-04T01:17:41;8.52;;;3.55;;
32297;SDS011;18782;48.984;8.548;2022-10-04T01:20:37;5.88;;;3.95;;
32297;SDS011;18782;48.984;8.548;2022-10-04T01:23:09;6.85;;;3.88;;
32297;SDS011;18782;48.984;8.548;2022-10-04T01:25:46;6.15;;;3.60;;
32297;SDS011;18782;48.984;8.548;2022-10-04T01:28:15;7.18;;;3.80;;
32297;SDS011;18782;48.984;8.548;2022-10-04T01:30:43;6.32;;;3.88;;
32297;SDS011;18782;48.984;8.548;2022-10-04T01:33:11;8.32;;;4.38;;
32297;SDS011;18782;48.984;8.548;2022-10-04T01:35:39;6.55;;;4.15;;
32297;SDS011;18782;48.984;8.548;2022-10-04T01:38:07;6.43;;;4.00;;
32297;SDS011;18782;48.984;8.548;2022-10-04T01:40:38;7.88;;;4.22;;
32297;SDS011;18782;48.984;8.548;2022-10-04T01:43:13;10.75;;;3.80;;
32297;SDS011;18782;48.984;8.548;2022-10-04T01:45:47;6.70;;;3.97;;
32297;SDS011;18782;48.984;8.548;2022-10-04T01:48:20;8.45;;;4.47;;
32297;SDS011;18782;48.984;8.548;2022-10-04T01:50:52;5.38;;;3.58;;
32297;SDS011;18782;48.984;8.548;2022-10-04T01:53:25;5.50;;;3.83;;
32297;SDS011;18782;48.984;8.548;2022-10-04T01:56:01;8.35;;;3.88;;
32297;SDS011;18782;48.984;8.548;2022-10-04T01:58:32;7.38;;;4.95;;
32297;SDS011;18782;48.984;8.548;2022-10-04T02:01:08;8.50;;;4.53;;
32297;SDS011;18782;48.984;8.548;2022-10-04T02:06:10;5.78;;;3.67;;
32297;SDS011;18782;48.984;8.548;2022-10-04T02:08:43;6.93;;;4.20;;
32297;SDS011;18782;48.984;8.548;2022-10-04T02:11:17;7.10;;;4.82;;
32297;SDS011;18782;48.984;8.548;2022-10-04T02:13:47;5.25;;;3.80;;
32297;SDS011;18782;48.984;8.548;2022-10-04T02:16:18;6.90;;;4.30;;
32297;SDS011;18782;48.984;8.548;2022-10-04T02:18:47;6.57;;;3.78;;
32297;SDS011;18782;48.984;8.548;2022-10-04T02:21:17;7.75;;;4.18;;
32297;SDS011;18782;48.984;8.548;2022-10-04T02:23:46;5.65;;;3.78;;
32297;SDS011;18782;48.984;8.548;2022-10-04T02:26:14;4.70;;;3.72;;
32297;SDS011;18782;48.984;8.548;2022-10-04T02:28:43;6.93;;;4.32;;
32297;SDS011;18782;48.984;8.548;2022-10-04T02:31:11;6.63;;;3.85;;
32297;SDS011;18782;48.984;8.548;2022-10-04T02:33:57;5.28;;;4.20;;
32297;SDS011;18782;48.984;8.548;2022-10-04T02:36:26;5.47;;;3.53;;
32297;SDS011;18782;48.984;8.548;2022-10-04T02:38:57;7.18;;;3.78;;
32297;SDS011;18782;48.984;8.548;2022-10-04T02:41:29;5.65;;;3.55;;
32297;SDS011;18782;48.984;8.548;2022-10-04T02:44:02;6.45;;;3.58;;
32297;SDS011;18782;48.984;8.548;2022-10-04T02:46:41;7.13;;;3.72;;
32297;SDS011;18782;48.984;8.548;2022-10-04T02:49:14;8.48;;;4.18;;
32297;SDS011;18782;48.984;8.548;2022-10-04T02:51:51;6.00;;;3.70;;
32297;SDS011;18782;48.984;8.548;2022-10-04T02:54:26;4.72;;;3.58;;
32297;SDS011;18782;48.984;8.548;2022-10-04T02:56:57;6.00;;;3.38;;
32297;SDS011;18782;48.984;8.548;2022-10-04T02:59:27;6.60;;;3.28;;
32297;SDS011;18782;48.984;8.548;2022-10-04T03:02:00;4.80;;;3.60;;
32297;SDS011;18782;48.984;8.548;2022-10-04T03:04:29;9.43;;;4.15;;
32297;SDS011;18782;48.984;8.548;2022-10-04T03:07:00;7.70;;;3.60;;
32297;SDS011;18782;48.984;8.548;2022-10-04T03:09:31;6.50;;;3.45;;
32297;SDS011;18782;48.984;8.548;2022-10-04T03:12:01;6.53;;;3.70;;
32297;SDS011;18782;48.984;8.548;2022-10-04T03:14:31;6.38;;;3.58;;
32297;SDS011;18782;48.984;8.548;2022-10-04T03:17:00;6.30;;;3.58;;
32297;SDS011;18782;48.984;8.548;2022-10-04T03:19:30;6.00;;;3.60;;
32297;SDS011;18782;48.984;8.548;2022-10-04T03:22:00;6.75;;;3.65;;
32297;SDS011;18782;48.984;8.548;2022-10-04T03:24:31;6.85;;;3.53;;
32297;SDS011;18782;48.984;8.548;2022-10-04T03:27:03;6.97;;;4.25;;
32297;SDS011;18782;48.984;8.548;2022-10-04T03:29:34;14.35;;;5.95;;
32297;SDS011;18782;48.984;8.548;2022-10-04T03:32:08;5.88;;;4.10;;
32297;SDS011;18782;48.984;8.548;2022-10-04T03:34:39;7.55;;;3.78;;
32297;SDS011;18782;48.984;8.548;2022-10-04T03:37:11;8.15;;;4.45;;
32297;SDS011;18782;48.984;8.548;2022-10-04T03:39:43;7.90;;;4.03;;
32297;SDS011;18782;48.984;8.548;2022-10-04T03:42:13;6.72;;;4.20;;
32297;SDS011;18782;48.984;8.548;2022-10-04T03:44:44;6.93;;;3.90;;
32297;SDS011;18782;48.984;8.548;2022-10-04T03:47:14;7.68;;;3.53;;
32297;SDS011;18782;48.984;8.548;2022-10-04T03:49:45;8.25;;;4.13;;
32297;SDS011;18782;48.984;8.548;2022-10-04T03:52:17;4.93;;;3.75;;
32297;SDS011;18782;48.984;8.548;2022-10-04T03:54:49;6.82;;;3.28;;
32297;SDS011;18782;48.984;8.548;2022-10-04T03:57:19;5.80;;;3.33;;
32297;SDS011;18782;48.984;8.548;2022-10-04T03:59:49;7.57;;;4.03;;
32297;SDS011;18782;48.984;8.548;2022-10-04T04:02:28;7.47;;;3.70;;
32297;SDS011;18782;48.984;8.548;2022-10-04T04:05:03;5.60;;;3.45;;
32297;SDS011;18782;48.984;8.548;2022-10-04T04:07:37;8.27;;;3.75;;
32297;SDS011;18782;48.984;8.548;2022-10-04T04:10:11;10.68;;;3.95;;
32297;SDS011;18782;48.984;8.548;2022-10-04T04:12:45;5.68;;;3.78;;
32297;SDS011;18782;48.984;8.548;2022-10-04T04:15:20;7.90;;;3.90;;
32297;SDS011;18782;48.984;8.548;2022-10-04T04:17:48;9.07;;;4.82;;
32297;SDS011;18782;48.984;8.548;2022-10-04T04:20:19;6.18;;;4.60;;
32297;SDS011;18782;48.984;8.548;2022-10-04T04:22:56;5.83;;;3.43;;
32297;SDS011;18782;48.984;8.548;2022-10-04T04:25:27;5.78;;;3.60;;
32297;SDS011;18782;48.984;8.548;2022-10-04T04:28:03;9.73;;;4.50;;
32297;SDS011;18782;48.984;8.548;2022-10-04T04:30:39;6.03;;;3.40;;
32297;SDS011;18782;48.984;8.548;2022-10-04T04:33:13;6.10;;;3.50;;
32297;SDS011;18782;48.984;8.548;2022-10-04T04:35:48;5.68;;;3.60;;
32297;SDS011;18782;48.984;8.548;2022-10-04T04:38:22;7.13;;;3.53;;
32297;SDS011;18782;48.984;8.548;2022-10-04T04:40:50;6.05;;;3.65;;
32297;SDS011;18782;48.984;8.548;2022-10-04T04:43:21;5.05;;;3.50;;
32297;SDS011;18782;48.984;8.548;2022-10-04T04:45:53;4.22;;;3.30;;
32297;SDS011;18782;48.984;8.548;2022-10-04T04:48:45;5.80;;;3.65;;
32297;SDS011;18782;48.984;8.548;2022-10-04T04:51:17;7.20;;;4.10;;
32297;SDS011;18782;48.984;8.548;2022-10-04T04:53:48;6.90;;;3.40;;
32297;SDS011;18782;48.984;8.548;2022-10-04T04:56:18;5.38;;;3.67;;
32297;SDS011;18782;48.984;8.548;2022-10-04T04:58:49;6.28;;;3.33;;
32297;SDS011;18782;48.984;8.548;2022-10-04T05:01:22;5.32;;;3.58;;
32297;SDS011;18782;48.984;8.548;2022-10-04T05:04:01;6.07;;;3.40;;
32297;SDS011;18782;48.984;8.548;2022-10-04T05:06:32;7.13;;;3.00;;
32297;SDS011;18782;48.984;8.548;2022-10-04T05:09:01;4.78;;;3.25;;
32297;SDS011;18782;48.984;8.548;2022-10-04T05:11:30;6.05;;;3.67;;
32297;SDS011;18782;48.984;8.548;2022-10-04T05:13:59;5.60;;;3.28;;
32297;SDS011;18782;48.984;8.548;2022-10-04T05:16:33;7.43;;;3.22;;
32297;SDS011;18782;48.984;8.548;2022-10-04T05:19:06;4.90;;;3.42;;
32297;SDS011;18782;48.984;8.548;2022-10-04T05:21:42;7.13;;;3.92;;
32297;SDS011;18782;48.984;8.548;2022-10-04T05:24:12;6.03;;;4.05;;
32297;SDS011;18782;48.984;8.548;2022-10-04T05:26:48;5.28;;;3.72;;
32297;SDS011;18782;48.984;8.548;2022-10-04T05:29:18;6.10;;;3.30;;
32297;SDS011;18782;48.984;8.548;2022-10-04T05:31:50;6.82;;;3.38;;
32297;SDS011;18782;48.984;8.548;2022-10-04T05:34:29;5.20;;;3.00;;
32297;SDS011;18782;48.984;8.548;2022-10-04T05:37:13;7.25;;;4.50;;
32297;SDS011;18782;48.984;8.548;2022-10-04T05:39:57;10.88;;;5.00;;
32297;SDS011;18782;48.984;8.548;2022-10-04T05:42:34;9.15;;;3.70;;
32297;SDS011;18782;48.984;8.548;2022-10-04T05:45:10;5.82;;;3.42;;
32297;SDS011;18782;48.984;8.548;2022-10-04T05:47:43;5.32;;;3.25;;
32297;SDS011;18782;48.984;8.548;2022-10-04T05:50:14;8.50;;;4.38;;
32297;SDS011;18782;48.984;8.548;2022-10-04T05:52:43;6.68;;;3.75;;
32297;SDS011;18782;48.984;8.548;2022-10-04T05:55:14;5.80;;;3.40;;
32297;SDS011;18782;48.984;8.548;2022-10-04T05:57:46;9.60;;;5.60;;
32297;SDS011;18782;48.984;8.548;2022-10-04T06:00:22;9.07;;;6.72;;
32297;SDS011;18782;48.984;8.548;2022-10-04T06:03:15;9.48;;;5.22;;
32297;SDS011;18782;48.984;8.548;2022-10-04T06:05:58;4.40;;;3.00;;
32297;SDS011;18782;48.984;8.548;2022-10-04T06:08:32;10.00;;;3.85;;
32297;SDS011;18782;48.984;8.548;2022-10-04T06:14:03;5.20;;;3.63;;
32297;SDS011;18782;48.984;8.548;2022-10-04T06:16:52;6.15;;;3.30;;
32297;SDS011;18782;48.984;8.548;2022-10-04T06:19:39;7.35;;;3.42;;
32297;SDS011;18782;48.984;8.548;2022-10-04T06:22:19;6.68;;;3.83;;
32297;SDS011;18782;48.984;8.548;2022-10-04T06:24:49;6.45;;;3.45;;
32297;SDS011;18782;48.984;8.548;2022-10-04T06:27:24;5.22;;;3.10;;
32297;SDS011;18782;48.984;8.548;2022-10-04T06:29:59;9.23;;;4.05;;
32297;SDS011;18782;48.984;8.548;2022-10-04T06:32:36;6.30;;;3.58;;
32297;SDS011;18782;48.984;8.548;2022-10-04T06:35:45;7.20;;;4.57;;
32297;SDS011;18782;48.984;8.548;2022-10-04T06:38:32;12.27;;;7.00;;
32297;SDS011;18782;48.984;8.548;2022-10-04T06:41:16;11.77;;;5.97;;
32297;SDS011;18782;48.984;8.548;2022-10-04T06:43:57;6.40;;;4.82;;
32297;SDS011;18782;48.984;8.548;2022-10-04T06:46:36;7.00;;;4.82;;
32297;SDS011;18782;48.984;8.548;2022-10-04T06:49:17;9.57;;;4.97;;
32297;SDS011;18782;48.984;8.548;2022-10-04T06:55:04;8.38;;;4.85;;
32297;SDS011;18782;48.984;8.548;2022-10-04T06:57:48;6.65;;;4.45;;
32297;SDS011;18782;48.984;8.548;2022-10-04T07:00:33;6.45;;;4.53;;
32297;SDS011;18782;48.984;8.548;2022-10-04T07:03:08;6.03;;;4.15;;
32297;SDS011;18782;48.984;8.548;2022-10-04T07:05:41;6.13;;;4.40;;
32297;SDS011;18782;48.984;8.548;2022-10-04T07:08:16;14.18;;;6.07;;
32297;SDS011;18782;48.984;8.548;2022-10-04T07:10:57;16.88;;;5.43;;
32297;SDS011;18782;48.984;8.548;2022-10-04T07:13:36;17.98;;;8.70;;
32297;SDS011;18782;48.984;8.548;2022-10-04T07:16:16;13.60;;;8.27;;
32297;SDS011;18782;48.984;8.548;2022-10-04T07:18:59;9.93;;;6.10;;
32297;SDS011;18782;48.984;8.548;2022-10-04T07:21:35;10.65;;;5.40;;
32297;SDS011;18782;48.984;8.548;2022-10-04T07:24:17;6.15;;;4.40;;
32297;SDS011;18782;48.984;8.548;2022-10-04T07:26:51;7.00;;;3.90;;
32297;SDS011;18782;48.984;8.548;2022-10-04T07:29:21;10.63;;;4.65;;
32297;SDS011;18782;48.984;8.548;2022-10-04T07:31:52;5.95;;;4.38;;
32297;SDS011;18782;48.984;8.548;2022-10-04T07:34:32;5.95;;;3.97;;
32297;SDS011;18782;48.984;8.548;2022-10-04T07:37:06;6.28;;;4.03;;
32297;SDS011;18782;48.984;8.548;2022-10-04T07:39:41;10.00;;;6.03;;
32297;SDS011;18782;48.984;8.548;2022-10-04T07:42:18;43.00;;;16.77;;
32297;SDS011;18782;48.984;8.548;2022-10-04T07:47:44;8.73;;;5.18;;
32297;SDS011;18782;48.984;8.548;2022-10-04T07:50:15;6.35;;;4.57;;
32297;SDS011;18782;48.984;8.548;2022-10-04T07:52:49;6.50;;;4.03;;
32297;SDS011;18782;48.984;8.548;2022-10-04T07:55:24;5.70;;;4.30;;
32297;SDS011;18782;48.984;8.548;2022-10-04T07:58:01;6.25;;;3.88;;
32297;SDS011;18782;48.984;8.548;2022-10-04T08:00:42;13.27;;;5.47;;
32297;SDS011;18782;48.984;8.548;2022-10-04T08:03:19;11.60;;;4.65;;
32297;SDS011;18782;48.984;8.548;2022-10-04T08:05:57;9.18;;;4.40;;
32297;SDS011;18782;48.984;8.548;2022-10-04T08:08:42;5.07;;;3.40;;
32297;SDS011;18782;48.984;8.548;2022-10-04T08:11:27;5.75;;;3.80;;
32297;SDS011;18782;48.984;8.548;2022-10-04T08:14:07;5.20;;;3.38;;
32297;SDS011;18782;48.984;8.548;2022-10-04T08:16:50;7.32;;;3.78;;
32297;SDS011;18782;48.984;8.548;2022-10-04T08:19:31;6.63;;;3.63;;
32297;SDS011;18782;48.984;8.548;2022-10-04T08:22:12;6.43;;;3.85;;
32297;SDS011;18782;48.984;8.548;2022-10-04T08:24:52;15.25;;;10.43;;
32297;SDS011;18782;48.984;8.548;2022-10-04T08:27:35;6.55;;;4.63;;
32297;SDS011;18782;48.984;8.548;2022-10-04T08:30:39;5.70;;;3.88;;
32297;SDS011;18782;48.984;8.548;2022-10-04T08:33:19;6.97;;;4.60;;
32297;SDS011;18782;48.984;8.548;2022-10-04T08:35:59;8.75;;;4.35;;
32297;SDS011;18782;48.984;8.548;2022-10-04T08:38:41;5.85;;;4.03;;
32297;SDS011;18782;48.984;8.548;2022-10-04T08:50:59;7.85;;;5.15;;
32297;SDS011;18782;48.984;8.548;2022-10-04T08:53:56;6.53;;;4.30;;
32297;SDS011;18782;48.984;8.548;2022-10-04T08:57:05;8.13;;;4.22;;
32297;SDS011;18782;48.984;8.548;2022-10-04T08:59:51;9.50;;;3.92;;
32297;SDS011;18782;48.984;8.548;2022-10-04T09:02:46;5.10;;;3.53;;
32297;SDS011;18782;48.984;8.548;2022-10-04T09:05:47;5.57;;;3.05;;
32297;SDS011;18782;48.984;8.548;2022-10-04T09:09:00;6.85;;;3.15;;
32297;SDS011;18782;48.984;8.548;2022-10-04T09:12:01;8.05;;;3.38;;
32297;SDS011;18782;48.984;8.548;2022-10-04T09:14:49;7.72;;;2.90;;
32297;SDS011;18782;48.984;8.548;2022-10-04T09:17:31;7.85;;;3.47;;
32297;SDS011;18782;48.984;8.548;2022-10-04T09:20:17;5.32;;;3.20;;
32297;SDS011;18782;48.984;8.548;2022-10-04T09:23:10;6.40;;;4.10;;
32297;SDS011;18782;48.984;8.548;2022-10-04T09:25:52;5.70;;;3.25;;
32297;SDS011;18782;48.984;8.548;2022-10-04T09:28:52;5.72;;;3.30;;
32297;SDS011;18782;48.984;8.548;2022-10-04T09:31:44;4.93;;;3.08;;
32297;SDS011;18782;48.984;8.548;2022-10-04T09:34:29;4.95;;;3.10;;
32297;SDS011;18782;48.984;8.548;2022-10-04T09:43:20;5.40;;;2.72;;
32297;SDS011;18782;48.984;8.548;2022-10-04T09:46:05;5.72;;;3.08;;
32297;SDS011;18782;48.984;8.548;2022-10-04T09:48:44;6.13;;;2.95;;
32297;SDS011;18782;48.984;8.548;2022-10-04T09:51:47;5.53;;;2.53;;
32297;SDS011;18782;48.984;8.548;2022-10-04T09:54:50;5.75;;;2.78;;
32297;SDS011;18782;48.984;8.548;2022-10-04T09:57:47;3.80;;;2.72;;
32297;SDS011;18782;48.984;8.548;2022-10-04T10:00:28;5.07;;;2.00;;
32297;SDS011;18782;48.984;8.548;2022-10-04T10:06:16;5.55;;;2.40;;
32297;SDS011;18782;48.984;8.548;2022-10-04T10:09:08;4.55;;;2.33;;
32297;SDS011;18782;48.984;8.548;2022-10-04T10:11:46;3.70;;;2.40;;
32297;SDS011;18782;48.984;8.548;2022-10-04T10:15:01;2.85;;;2.22;;
32297;SDS011;18782;48.984;8.548;2022-10-04T10:17:45;3.60;;;2.05;;
32297;SDS011;18782;48.984;8.548;2022-10-04T10:20:24;5.97;;;2.22;;
32297;SDS011;18782;48.984;8.548;2022-10-04T10:26:17;3.65;;;2.17;;
32297;SDS011;18782;48.984;8.548;2022-10-04T10:32:18;4.30;;;3.03;;
32297;SDS011;18782;48.984;8.548;2022-10-04T10:38:21;5.65;;;2.10;;
32297;SDS011;18782;48.984;8.548;2022-10-04T10:41:06;3.85;;;2.10;;
32297;SDS011;18782;48.984;8.548;2022-10-04T10:43:54;4.10;;;2.20;;
32297;SDS011;18782;48.984;8.548;2022-10-04T10:46:41;3.63;;;1.88;;
32297;SDS011;18782;48.984;8.548;2022-10-04T10:52:36;4.15;;;2.22;;
32297;SDS011;18782;48.984;8.548;2022-10-04T10:55:27;4.07;;;2.13;;
32297;SDS011;18782;48.984;8.548;2022-10-04T11:01:07;4.82;;;2.40;;
32297;SDS011;18782;48.984;8.548;2022-10-04T11:03:54;4.82;;;2.25;;
32297;SDS011;18782;48.984;8.548;2022-10-04T11:06:59;7.07;;;2.72;;
32297;SDS011;18782;48.984;8.548;2022-10-04T11:12:52;6.93;;;2.55;;
32297;SDS011;18782;48.984;8.548;2022-10-04T11:15:49;7.72;;;3.20;;
32297;SDS011;18782;48.984;8.548;2022-10-04T11:25:22;5.03;;;2.10;;
32297;SDS011;18782;48.984;8.548;2022-10-04T11:28:04;8.73;;;2.10;;
32297;SDS011;18782;48.984;8.548;2022-10-04T11:30:51;4.75;;;3.00;;
32297;SDS011;18782;48.984;8.548;2022-10-04T11:33:41;4.50;;;2.53;;
32297;SDS011;18782;48.984;8.548;2022-10-04T11:36:28;6.78;;;1.98;;
32297;SDS011;18782;48.984;8.548;2022-10-04T11:39:19;3.58;;;1.77;;
32297;SDS011;18782;48.984;8.548;2022-10-04T11:41:59;3.80;;;2.00;;
32297;SDS011;18782;48.984;8.548;2022-10-04T11:44:54;4.00;;;1.83;;
32297;SDS011;18782;48.984;8.548;2022-10-04T11:47:40;3.50;;;1.77;;
32297;SDS011;18782;48.984;8.548;2022-10-04T11:50:20;4.95;;;2.28;;
32297;SDS011;18782;48.984;8.548;2022-10-04T11:56:16;3.20;;;1.63;;
32297;SDS011;18782;48.984;8.548;2022-10-04T11:58:57;4.60;;;1.70;;
32297;SDS011;18782;48.984;8.548;2022-10-04T12:07:47;6.10;;;1.70;;
32297;SDS011;18782;48.984;8.548;2022-10-04T12:10:24;5.03;;;1.85;;
32297;SDS011;18782;48.984;8.548;2022-10-04T12:12:58;4.43;;;1.70;;
32297;SDS011;18782;48.984;8.548;2022-10-04T12:15:58;3.33;;;1.98;;
32297;SDS011;18782;48.984;8.548;2022-10-04T12:18:44;3.08;;;1.75;;
32297;SDS011;18782;48.984;8.548;2022-10-04T12:21:34;5.20;;;1.77;;
32297;SDS011;18782;48.984;8.548;2022-10-04T12:24:08;4.78;;;1.80;;
32297;SDS011;18782;48.984;8.548;2022-10-04T12:26:57;7.05;;;1.80;;
32297;SDS011;18782;48.984;8.548;2022-10-04T12:32:50;4.25;;;1.60;;
32297;SDS011;18782;48.984;8.548;2022-10-04T12:35:31;3.88;;;2.00;;
32297;SDS011;18782;48.984;8.548;2022-10-04T12:38:13;4.15;;;1.75;;
32297;SDS011;18782;48.984;8.548;2022-10-04T12:40:51;12.77;;;3.15;;
32297;SDS011;18782;48.984;8.548;2022-10-04T12:43:28;4.07;;;1.70;;
32297;SDS011;18782;48.984;8.548;2022-10-04T12:46:07;5.07;;;1.75;;
32297;SDS011;18782;48.984;8.548;2022-10-04T12:48:46;3.70;;;2.03;;
32297;SDS011;18782;48.984;8.548;2022-10-04T12:51:40;6.13;;;1.80;;
32297;SDS011;18782;48.984;8.548;2022-10-04T12:54:19;3.95;;;1.85;;
32297;SDS011;18782;48.984;8.548;2022-10-04T12:56:59;4.07;;;1.70;;
32297;SDS011;18782;48.984;8.548;2022-10-04T12:59:39;3.50;;;1.75;;
32297;SDS011;18782;48.984;8.548;2022-10-04T13:02:22;6.07;;;1.70;;
32297;SDS011;18782;48.984;8.548;2022-10-04T13:05:11;4.70;;;1.67;;
32297;SDS011;18782;48.984;8.548;2022-10-04T13:07:47;4.65;;;2.25;;
32297;SDS011;18782;48.984;8.548;2022-10-04T13:10:41;5.10;;;1.73;;
32297;SDS011;18782;48.984;8.548;2022-10-04T13:13:27;3.20;;;1.70;;
32297;SDS011;18782;48.984;8.548;2022-10-04T13:16:09;3.70;;;1.77;;
32297;SDS011;18782;48.984;8.548;2022-10-04T13:19:09;3.88;;;1.60;;
32297;SDS011;18782;48.984;8.548;2022-10-04T13:21:48;3.13;;;1.70;;
32297;SDS011;18782;48.984;8.548;2022-10-04T13:25:19;4.15;;;1.60;;
32297;SDS011;18782;48.984;8.548;2022-10-04T13:27:56;2.60;;;1.48;;
32297;SDS011;18782;48.984;8.548;2022-10-04T13:30:31;5.18;;;1.80;;
32297;SDS011;18782;48.984;8.548;2022-10-04T13:33:10;5.22;;;1.73;;
32297;SDS011;18782;48.984;8.548;2022-10-04T13:35:51;5.70;;;1.98;;
32297;SDS011;18782;48.984;8.548;2022-10-04T13:38:30;3.58;;;1.63;;
32297;SDS011;18782;48.984;8.548;2022-10-04T13:41:19;1.85;;;1.02;;
32297;SDS011;18782;48.984;8.548;2022-10-04T13:44:05;3.25;;;1.40;;
32297;SDS011;18782;48.984;8.548;2022-10-04T13:46:57;3.00;;;1.30;;
32297;SDS011;18782;48.984;8.548;2022-10-04T13:49:41;4.53;;;1.52;;
32297;SDS011;18782;48.984;8.548;2022-10-04T13:52:22;2.55;;;1.40;;
32297;SDS011;18782;48.984;8.548;2022-10-04T13:55:32;3.95;;;1.40;;
32297;SDS011;18782;48.984;8.548;2022-10-04T13:58:30;2.92;;;1.50;;
32297;SDS011;18782;48.984;8.548;2022-10-04T14:04:08;4.32;;;1.77;;
32297;SDS011;18782;48.984;8.548;2022-10-04T14:06:57;4.53;;;1.50;;
32297;SDS011;18782;48.984;8.548;2022-10-04T14:09:51;4.18;;;1.50;;
32297;SDS011;18782;48.984;8.548;2022-10-04T14:12:44;2.90;;;1.33;;
32297;SDS011;18782;48.984;8.548;2022-10-04T14:30:48;3.05;;;1.48;;
32297;SDS011;18782;48.984;8.548;2022-10-04T14:33:41;2.85;;;1.50;;
32297;SDS011;18782;48.984;8.548;2022-10-04T14:36:30;4.22;;;1.55;;
32297;SDS011;18782;48.984;8.548;2022-10-04T14:39:19;3.05;;;1.50;;
32297;SDS011;18782;48.984;8.548;2022-10-04T14:42:15;2.20;;;1.00;;
32297;SDS011;18782;48.984;8.548;2022-10-04T14:45:07;3.50;;;1.25;;
32297;SDS011;18782;48.984;8.548;2022-10-04T14:47:58;5.53;;;1.58;;
32297;SDS011;18782;48.984;8.548;2022-10-04T14:50:42;4.35;;;1.60;;
32297;SDS011;18782;48.984;8.548;2022-10-04T14:53:24;6.53;;;1.60;;
32297;SDS011;18782;48.984;8.548;2022-10-04T14:56:20;5.28;;;1.92;;
32297;SDS011;18782;48.984;8.548;2022-10-04T14:59:00;3.67;;;1.77;;
32297;SDS011;18782;48.984;8.548;2022-10-04T15:01:43;4.13;;;1.80;;
32297;SDS011;18782;48.984;8.548;2022-10-04T15:04:33;2.22;;;1.38;;
32297;SDS011;18782;48.984;8.548;2022-10-04T15:07:27;2.63;;;1.40;;
32297;SDS011;18782;48.984;8.548;2022-10-04T15:10:02;4.05;;;1.83;;
32297;SDS011;18782;48.984;8.548;2022-10-04T15:12:40;2.45;;;1.38;;
32297;SDS011;18782;48.984;8.548;2022-10-04T15:18:30;6.05;;;1.83;;
32297;SDS011;18782;48.984;8.548;2022-10-04T15:21:11;4.47;;;1.35;;
32297;SDS011;18782;48.984;8.548;2022-10-04T15:24:09;4.28;;;1.50;;
32297;SDS011;18782;48.984;8.548;2022-10-04T15:26:51;5.78;;;1.60;;
32297;SDS011;18782;48.984;8.548;2022-10-04T15:29:36;3.53;;;1.73;;
32297;SDS011;18782;48.984;8.548;2022-10-04T15:32:14;2.92;;;1.65;;
32297;SDS011;18782;48.984;8.548;2022-10-04T15:34:55;2.47;;;1.25;;
32297;SDS011;18782;48.984;8.548;2022-10-04T15:37:33;2.70;;;1.40;;
32297;SDS011;18782;48.984;8.548;2022-10-04T15:40:17;2.03;;;1.30;;
32297;SDS011;18782;48.984;8.548;2022-10-04T15:42:55;3.85;;;2.05;;
32297;SDS011;18782;48.984;8.548;2022-10-04T15:45:33;3.65;;;1.60;;
32297;SDS011;18782;48.984;8.548;2022-10-04T15:48:26;7.18;;;1.85;;
32297;SDS011;18782;48.984;8.548;2022-10-04T15:51:02;3.35;;;1.65;;
32297;SDS011;18782;48.984;8.548;2022-10-04T15:53:43;3.10;;;1.80;;
32297;SDS011;18782;48.984;8.548;2022-10-04T15:56:34;3.85;;;1.73;;
32297;SDS011;18782;48.984;8.548;2022-10-04T16:02:05;3.25;;;1.85;;
32297;SDS011;18782;48.984;8.548;2022-10-04T16:04:48;2.55;;;1.88;;
32297;SDS011;18782;48.984;8.548;2022-10-04T16:07:34;3.45;;;2.53;;
32297;SDS011;18782;48.984;8.548;2022-10-04T16:10:13;4.32;;;2.30;;
32297;SDS011;18782;48.984;8.548;2022-10-04T16:18:52;3.90;;;1.80;;
32297;SDS011;18782;48.984;8.548;2022-10-04T16:21:32;2.88;;;1.85;;
32297;SDS011;18782;48.984;8.548;2022-10-04T16:27:14;8.38;;;2.58;;
32297;SDS011;18782;48.984;8.548;2022-10-04T16:30:02;4.68;;;1.95;;
32297;SDS011;18782;48.984;8.548;2022-10-04T16:33:01;4.43;;;1.67;;
32297;SDS011;18782;48.984;8.548;2022-10-04T16:35:37;3.75;;;1.80;;
32297;SDS011;18782;48.984;8.548;2022-10-04T16:38:19;3.70;;;1.50;;
32297;SDS011;18782;48.984;8.548;2022-10-04T16:41:08;3.15;;;1.63;;
32297;SDS011;18782;48.984;8.548;2022-10-04T16:43:46;6.82;;;3.22;;
32297;SDS011;18782;48.984;8.548;2022-10-04T16:46:21;5.68;;;3.95;;
32297;SDS011;18782;48.984;8.548;2022-10-04T16:48:57;13.65;;;9.38;;
32297;SDS011;18782;48.984;8.548;2022-10-04T16:54:12;27.27;;;23.15;;
32297;SDS011;18782;48.984;8.548;2022-10-04T16:57:12;15.07;;;7.72;;
32297;SDS011;18782;48.984;8.548;2022-10-04T16:59:49;7.32;;;3.78;;
32297;SDS011;18782;48.984;8.548;2022-10-04T17:02:25;8.00;;;4.25;;
32297;SDS011;18782;48.984;8.548;2022-10-04T17:05:18;4.32;;;3.10;;
32297;SDS011;18782;48.984;8.548;2022-10-04T17:07:55;5.53;;;2.28;;
32297;SDS011;18782;48.984;8.548;2022-10-04T17:10:39;10.20;;;7.05;;
32297;SDS011;18782;48.984;8.548;2022-10-04T17:13:21;8.47;;;4.83;;
32297;SDS011;18782;48.984;8.548;2022-10-04T17:15:57;8.77;;;4.15;;
32297;SDS011;18782;48.984;8.548;2022-10-04T17:18:35;10.23;;;6.30;;
32297;SDS011;18782;48.984;8.548;2022-10-04T17:21:19;19.40;;;10.38;;
32297;SDS011;18782;48.984;8.548;2022-10-04T17:24:12;16.25;;;8.55;;
32297;SDS011;18782;48.984;8.548;2022-10-04T17:26:50;16.67;;;7.65;;
32297;SDS011;18782;48.984;8.548;2022-10-04T17:29:36;12.93;;;6.35;;
32297;SDS011;18782;48.984;8.548;2022-10-04T17:32:17;11.20;;;6.10;;
32297;SDS011;18782;48.984;8.548;2022-10-04T17:34:55;15.10;;;9.18;;
32297;SDS011;18782;48.984;8.548;2022-10-04T17:37:37;12.80;;;7.55;;
32297;SDS011;18782;48.984;8.548;2022-10-04T17:40:18;16.83;;;7.72;;
32297;SDS011;18782;48.984;8.548;2022-10-04T17:42:56;26.30;;;10.93;;
32297;SDS011;18782;48.984;8.548;2022-10-04T17:45:43;14.80;;;6.35;;
32297;SDS011;18782;48.984;8.548;2022-10-04T17:48:19;10.30;;;5.45;;
32297;SDS011;18782;48.984;8.548;2022-10-04T17:51:09;15.07;;;5.22;;
32297;SDS011;18782;48.984;8.548;2022-10-04T17:54:02;9.90;;;4.93;;